Vallecitos, NM (87581)

11:31 PM MDT on October 20, 2014 (GMT -0600)
RAWS TAOS PORTABLE #2 NM US | Change Station
CLOSE
Current Station
Personal Weather Station
Location: Tres Piedras, NM
Elevation: 2541 m
Nearby Weather Stations

Elev 2541 m 36.73 °N, 105.93 °W | Updated 51 minutes ago

Partly Cloudy
Partly Cloudy
10.0 °C
Feels Like 10.0 °C
N
4.8
Wind Variable Wind from SW
Gusts 17.7 km/h

Today
High -- | Low -- °C
--% Chance of Precip.
Yesterday
High -- | Low -- °C
Precip. -- mm
7:16 AM 6:21 PM
Waning Crescent, 7% visible
Pressure 1025 hPa
Visibility 16.1 kilometers
Clouds Few 2286 m
Dew Point 3 °C
Humidity 63%
Rainfall 1 mm
Snow Depth 0 in , 0 in
UV 0 out of 12
Pollen 3.60 out of 12
Air Quality Not available.
Flu Activity Sporadic
METAR KSKX 210515Z AUTO 21003KT 10SM FEW075 11/02 A3026 RMK AO1

More Conditions Fewer Conditions

Pressure 1025 hPa
Visibility 16.1 kilometers
Clouds Few 2286 m
Dew Point 3 °C
Humidity 63%
Rainfall 1 mm
Snow Depth 0 in , 0 in
UV 0 out of 12
Pollen 3.60 out of 12
Air Quality Not available.
Flu Activity Sporadic
METAR KSKX 210515Z AUTO 21003KT 10SM FEW075 11/02 A3026 RMK AO1

More Conditions Fewer Conditions

Nowcast | as of 10:03 PM MDT on October 20, 2014

Isolated showers and thunderstorms will continue across portions of western and central New Mexico for the rest of the evening. Movement will be to the northwest at 10 to 15 mph. Most areas where Showers Pass through before midnight will see a tenth of an inch of rain or less. Some locations that may be affected include the Whitewater Baldy burn scar...the Albuquerque and Santa Fe Metro areas...Jemez Springs and Belen. Otherwise...winds may occasionally gust to around 25 mph from the east and southeast into the Rio Grande Valley.

×

10-Day Weather Forecast

Almanac

Astronomy

Oct. 20, 2014 Rise Set
Actual Time 7:16 AM MDT 6:21 PM MDT
Civil Twilight 6:50 AM MDT 6:47 PM MDT
Nautical Twilight 6:20 AM MDT 7:17 PM MDT
Astronomical Twilight 5:50 AM MDT 7:47 PM MDT
Moon 4:12 AM MDT (10/20) 4:41 PM MDT (10/20)
Length of Visible Light 11h 57m
Length of Day
11h 04m
Tomorrow will be 2m 11s shorter.
Waning Crescent, 7% of the Moon is Illuminated
Oct 21
Waning Crescent
Oct 23
New
Oct 30
First Quarter
Nov 6
Full
Nov 14
Last Quarter

Yesterday's Extremes

State Highs State Lows

Community

WunderPhotos

Upload Photos

1,763,612 photos uploaded!

Nearby

Snow Depth

Station Depth Elevation
Hopewell 0 in 10000 ft
Bateman 0 in 9300 ft
Chamita 0 in 8400 ft
Red River Pass #2 0 in 9850 ft
Gallegos Peak 1 in 9800 ft

Earthquake Activity

City Distance Mag. Time & Date
Trinidad, Colorado 113 kilometers 2.7 10:33 PM MDT
2014-10-20
Trinidad, Colorado 130 kilometers 2.5 10:01 PM MDT
2014-10-19
Minimum magnitude displayed is 2.5.

Coastal Water Temperatures

Place Temperature
No Stations Reporting

Nearby Weather Stations